createdAt,value
2018-03-16T00:00:28.955Z,0.00
2018-03-16T00:01:28.909Z,0.00
2018-03-16T00:02:28.863Z,0.00
2018-03-16T00:03:28.817Z,0.00
2018-03-16T00:04:28.771Z,0.00
2018-03-16T00:05:28.746Z,0.00
2018-03-16T00:06:28.681Z,0.00
2018-03-16T00:07:28.635Z,0.00
2018-03-16T00:08:28.588Z,0.00
2018-03-16T00:09:28.542Z,0.00
2018-03-16T00:10:28.499Z,0.00
2018-03-16T00:11:28.454Z,0.00
2018-03-16T00:12:28.407Z,0.00
2018-03-16T00:13:28.358Z,0.00
2018-03-16T00:14:28.315Z,0.00
2018-03-16T00:15:28.268Z,0.00
2018-03-16T00:16:28.226Z,0.00
2018-03-16T00:17:28.176Z,0.00
2018-03-16T00:18:28.132Z,0.00
2018-03-16T00:19:28.102Z,0.00
2018-03-16T00:20:28.043Z,0.00
2018-03-16T00:21:27.994Z,0.00
2018-03-16T00:22:27.948Z,0.00
2018-03-16T00:23:27.903Z,0.00
2018-03-16T00:24:27.860Z,0.00
2018-03-16T00:25:27.816Z,0.00
2018-03-16T00:26:27.767Z,0.00
2018-03-16T00:27:27.722Z,0.00
2018-03-16T00:28:27.678Z,0.00
2018-03-16T00:29:27.632Z,0.00
2018-03-16T00:30:27.584Z,0.00
2018-03-16T00:31:27.540Z,0.00
2018-03-16T00:32:27.492Z,0.00
2018-03-16T00:33:27.447Z,0.00
2018-03-16T00:34:27.409Z,0.00
2018-03-16T00:35:27.355Z,0.00
2018-03-16T00:36:27.314Z,0.00
2018-03-16T00:37:27.263Z,0.00
2018-03-16T00:38:27.217Z,0.00
2018-03-16T00:39:27.172Z,0.00
2018-03-16T00:40:27.127Z,0.00
2018-03-16T00:41:27.082Z,0.00
2018-03-16T00:42:27.041Z,0.00
2018-03-16T00:43:26.989Z,0.00
2018-03-16T00:44:26.945Z,0.00
2018-03-16T00:45:26.898Z,0.00
2018-03-16T00:46:26.856Z,0.00
2018-03-16T00:47:26.808Z,0.00
2018-03-16T00:48:26.763Z,0.00
2018-03-16T00:49:26.719Z,0.00
2018-03-16T00:50:26.672Z,0.00
2018-03-16T00:51:26.627Z,0.00
2018-03-16T00:52:26.584Z,0.00
2018-03-16T00:53:26.537Z,0.00
2018-03-16T00:54:26.487Z,0.00
2018-03-16T00:55:26.439Z,0.00
2018-03-16T00:56:26.436Z,0.00
2018-03-16T00:57:26.350Z,0.00
2018-03-16T00:58:26.304Z,0.00
2018-03-16T00:59:26.262Z,0.00
2018-03-16T01:00:26.217Z,0.00
2018-03-16T01:01:26.167Z,0.00
2018-03-16T01:02:26.127Z,0.00
2018-03-16T01:03:26.075Z,0.00
2018-03-16T01:04:26.032Z,0.00
2018-03-16T01:05:25.994Z,0.00
2018-03-16T01:06:25.939Z,0.00
2018-03-16T01:07:25.892Z,0.00
2018-03-16T01:08:25.855Z,0.00
2018-03-16T01:09:25.802Z,0.00
2018-03-16T01:10:25.760Z,0.00
2018-03-16T01:11:25.715Z,0.00
2018-03-16T01:12:25.668Z,0.00
2018-03-16T01:13:25.619Z,0.00
2018-03-16T01:14:25.658Z,0.00
2018-03-16T01:15:25.531Z,0.00
2018-03-16T01:16:25.494Z,0.00
2018-03-16T01:17:25.439Z,0.00
2018-03-16T01:18:25.389Z,0.00
2018-03-16T01:19:25.349Z,0.00
2018-03-16T01:20:25.299Z,0.00
2018-03-16T01:21:25.253Z,0.00
2018-03-16T01:22:25.207Z,0.00
2018-03-16T01:23:25.165Z,0.00
2018-03-16T01:24:25.114Z,0.00
2018-03-16T01:25:25.074Z,0.00
2018-03-16T01:26:25.023Z,0.00
2018-03-16T01:27:24.979Z,0.00
2018-03-16T01:28:24.936Z,0.00
2018-03-16T01:29:24.889Z,0.00
2018-03-16T01:30:24.848Z,0.00
2018-03-16T01:31:24.797Z,0.00
2018-03-16T01:32:24.748Z,0.00
2018-03-16T01:33:24.708Z,0.00
2018-03-16T01:34:24.656Z,0.00
2018-03-16T01:35:24.611Z,0.00
2018-03-16T01:36:24.566Z,0.00
2018-03-16T01:37:24.519Z,0.00
2018-03-16T01:38:24.474Z,0.00
2018-03-16T01:39:24.427Z,0.00
2018-03-16T01:40:24.381Z,0.00
2018-03-16T01:41:24.335Z,0.00
2018-03-16T01:42:24.290Z,0.00
2018-03-16T01:43:24.245Z,0.00
2018-03-16T01:44:24.200Z,0.00
2018-03-16T01:45:24.153Z,0.00
2018-03-16T01:46:24.109Z,0.00
2018-03-16T01:47:24.064Z,0.00
2018-03-16T01:48:24.014Z,0.00
2018-03-16T01:49:23.967Z,0.00
2018-03-16T01:50:23.923Z,0.00
2018-03-16T01:51:23.882Z,0.00
2018-03-16T01:52:23.876Z,0.00
2018-03-16T01:53:23.787Z,0.00
2018-03-16T01:54:23.739Z,0.00
2018-03-16T01:55:23.694Z,0.00
2018-03-16T01:56:23.648Z,0.00
2018-03-16T01:57:23.603Z,0.00
2018-03-16T01:58:23.556Z,0.00
2018-03-16T01:59:23.511Z,0.00
2018-03-16T02:00:23.467Z,0.00
2018-03-16T02:01:23.422Z,0.00
2018-03-16T02:02:23.373Z,0.00
2018-03-16T02:03:23.329Z,0.00
2018-03-16T02:04:23.283Z,0.00
2018-03-16T02:05:23.235Z,0.00
2018-03-16T02:06:23.190Z,0.00
2018-03-16T02:07:23.146Z,0.00
2018-03-16T02:08:23.106Z,0.00
2018-03-16T02:09:23.052Z,0.00
2018-03-16T02:10:23.008Z,0.00
2018-03-16T02:11:22.965Z,0.00
2018-03-16T02:12:22.915Z,0.00
2018-03-16T02:13:22.870Z,0.00
2018-03-16T02:14:22.823Z,0.00
2018-03-16T02:15:22.778Z,0.00
2018-03-16T02:16:22.732Z,0.00
2018-03-16T02:17:22.686Z,0.00
2018-03-16T02:18:22.642Z,0.00
2018-03-16T02:19:22.594Z,0.00
2018-03-16T02:20:22.548Z,0.00
2018-03-16T02:21:22.505Z,0.00
2018-03-16T02:22:22.458Z,0.00
2018-03-16T02:23:22.410Z,0.00
2018-03-16T02:24:22.426Z,0.00
2018-03-16T02:25:22.318Z,0.00
2018-03-16T02:26:22.275Z,0.00
2018-03-16T02:27:22.233Z,0.00
2018-03-16T02:28:22.182Z,0.00
2018-03-16T02:29:22.135Z,0.00
2018-03-16T02:30:22.091Z,0.00
2018-03-16T02:31:22.045Z,0.00
2018-03-16T02:32:22.000Z,0.00
2018-03-16T02:33:21.970Z,0.00
2018-03-16T02:34:21.911Z,0.00
2018-03-16T02:35:21.861Z,0.00
2018-03-16T02:36:21.817Z,0.00
2018-03-16T02:37:21.774Z,0.00
2018-03-16T02:38:21.724Z,0.00
2018-03-16T02:39:21.679Z,0.00
2018-03-16T02:40:21.631Z,0.00
2018-03-16T02:41:21.600Z,0.00
2018-03-16T02:42:21.543Z,0.00
2018-03-16T02:43:21.496Z,0.00
2018-03-16T02:44:21.447Z,0.00
2018-03-16T02:45:21.402Z,0.00
2018-03-16T02:46:21.355Z,0.00
2018-03-16T02:47:21.309Z,0.00
2018-03-16T02:48:21.264Z,0.00
2018-03-16T02:49:21.218Z,0.00
2018-03-16T02:50:21.171Z,0.00
2018-03-16T02:51:21.128Z,0.00
2018-03-16T02:52:21.082Z,0.00
2018-03-16T02:53:21.033Z,0.00
2018-03-16T02:54:20.986Z,0.00
2018-03-16T02:55:20.943Z,0.00
2018-03-16T02:56:20.899Z,0.00
2018-03-16T02:57:20.852Z,0.00
2018-03-16T02:58:20.810Z,0.00
2018-03-16T02:59:20.757Z,0.00
2018-03-16T03:00:20.709Z,0.00
2018-03-16T03:01:20.667Z,0.00
2018-03-16T03:02:20.619Z,0.00
2018-03-16T03:03:20.575Z,0.00
2018-03-16T03:04:20.526Z,0.00
2018-03-16T03:05:20.484Z,0.00
2018-03-16T03:06:20.435Z,0.00
2018-03-16T03:07:20.389Z,0.00
2018-03-16T03:08:20.342Z,0.00
2018-03-16T03:09:20.297Z,0.00
2018-03-16T03:10:20.249Z,0.00
2018-03-16T03:11:20.205Z,0.00
2018-03-16T03:12:20.157Z,0.00
2018-03-16T03:13:20.111Z,0.00
2018-03-16T03:14:20.067Z,0.00
2018-03-16T03:15:20.023Z,0.00
2018-03-16T03:16:19.977Z,0.00
2018-03-16T03:17:19.929Z,0.00
2018-03-16T03:18:19.886Z,0.00
2018-03-16T03:19:19.840Z,0.00
2018-03-16T03:20:19.789Z,0.00
2018-03-16T03:21:19.743Z,0.00
2018-03-16T03:22:19.698Z,0.00
2018-03-16T03:23:19.699Z,0.00
2018-03-16T03:24:19.604Z,0.00
2018-03-16T03:25:19.559Z,0.00
2018-03-16T03:26:19.514Z,0.00
2018-03-16T03:27:19.468Z,0.00
2018-03-16T03:28:19.422Z,0.00
2018-03-16T03:29:19.377Z,0.00
2018-03-16T03:30:19.331Z,0.00
2018-03-16T03:31:19.285Z,0.00
2018-03-16T03:32:19.239Z,0.00
2018-03-16T03:33:19.192Z,0.00
2018-03-16T03:34:19.146Z,0.00
2018-03-16T03:35:19.099Z,0.00
2018-03-16T03:36:19.053Z,0.00
2018-03-16T03:37:19.009Z,0.00
2018-03-16T03:38:18.961Z,0.00
2018-03-16T03:39:18.914Z,0.00
2018-03-16T03:40:18.870Z,0.00
2018-03-16T03:41:18.823Z,0.00
2018-03-16T03:42:18.778Z,0.00
2018-03-16T03:43:18.730Z,0.00
2018-03-16T03:44:18.685Z,0.00
2018-03-16T03:45:18.637Z,0.00
2018-03-16T03:46:18.594Z,0.00
2018-03-16T03:47:18.545Z,0.00
2018-03-16T03:48:18.499Z,0.00
2018-03-16T03:49:18.452Z,0.00
2018-03-16T03:50:18.409Z,0.00
2018-03-16T03:51:18.361Z,0.00
2018-03-16T03:52:18.318Z,0.00
2018-03-16T03:53:18.269Z,0.00
2018-03-16T03:54:18.229Z,0.00
2018-03-16T03:55:18.188Z,0.00
2018-03-16T03:56:18.147Z,0.00
2018-03-16T03:57:18.088Z,0.00
2018-03-16T03:58:18.038Z,0.00
2018-03-16T03:59:17.993Z,0.00
2018-03-16T04:00:17.948Z,0.00
2018-03-16T04:01:17.900Z,0.00
2018-03-16T04:02:17.860Z,0.00
2018-03-16T04:03:17.810Z,0.00
2018-03-16T04:04:17.763Z,0.00
2018-03-16T04:05:17.716Z,0.00
2018-03-16T04:06:17.671Z,0.00
2018-03-16T04:07:17.625Z,0.00
2018-03-16T04:08:17.578Z,0.00
2018-03-16T04:09:17.532Z,0.00
2018-03-16T04:10:17.487Z,0.00
2018-03-16T04:11:17.439Z,0.00
2018-03-16T04:12:17.397Z,0.00
2018-03-16T04:13:17.349Z,0.00
2018-03-16T04:14:17.300Z,0.00
2018-03-16T04:15:17.257Z,0.00
2018-03-16T04:16:17.206Z,0.00
2018-03-16T04:17:17.165Z,0.00
2018-03-16T04:18:17.121Z,0.00
2018-03-16T04:19:17.102Z,0.00
2018-03-16T04:20:17.026Z,0.00
2018-03-16T04:21:16.980Z,0.00
2018-03-16T04:22:16.934Z,0.00
2018-03-16T04:23:16.888Z,0.00
2018-03-16T04:24:16.839Z,0.00
2018-03-16T04:25:16.796Z,0.00
2018-03-16T04:26:16.747Z,0.00
2018-03-16T04:27:16.703Z,0.00
2018-03-16T04:28:16.657Z,0.00
2018-03-16T04:29:16.609Z,0.00
2018-03-16T04:30:16.563Z,0.00
2018-03-16T04:31:16.518Z,0.00
2018-03-16T04:32:16.472Z,0.00
2018-03-16T04:33:16.427Z,0.00
2018-03-16T04:34:16.382Z,0.00
2018-03-16T04:35:16.336Z,0.00
2018-03-16T04:36:16.288Z,0.00
2018-03-16T04:37:16.241Z,0.00
2018-03-16T04:38:16.195Z,0.00
2018-03-16T04:39:16.149Z,0.00
2018-03-16T04:40:16.104Z,0.00
2018-03-16T04:41:16.057Z,0.00
2018-03-16T04:42:16.011Z,0.00
2018-03-16T04:43:15.966Z,0.00
2018-03-16T04:44:15.927Z,0.00
2018-03-16T04:45:16.135Z,0.00
2018-03-16T04:46:16.464Z,0.00
2018-03-16T04:47:15.881Z,0.00
2018-03-16T04:48:15.735Z,0.00
2018-03-16T04:49:15.689Z,0.00
2018-03-16T04:50:15.646Z,0.00
2018-03-16T04:51:15.598Z,0.00
2018-03-16T04:52:15.554Z,0.00
2018-03-16T04:53:15.508Z,0.00
2018-03-16T04:54:15.464Z,0.00
2018-03-16T04:55:15.415Z,0.00
2018-03-16T04:56:15.371Z,0.00
2018-03-16T04:57:15.372Z,0.00
2018-03-16T04:58:15.276Z,0.00
2018-03-16T04:59:15.230Z,0.00
2018-03-16T05:00:15.186Z,0.00
2018-03-16T05:01:15.144Z,0.00
2018-03-16T05:02:15.095Z,0.00
2018-03-16T05:03:15.064Z,0.00
2018-03-16T05:04:14.999Z,0.00
2018-03-16T05:05:14.952Z,0.00
2018-03-16T05:06:14.910Z,0.00
2018-03-16T05:07:14.866Z,0.00
2018-03-16T05:08:14.828Z,0.00
2018-03-16T05:09:14.780Z,0.00
2018-03-16T05:10:14.727Z,0.00
2018-03-16T05:11:14.681Z,0.00
2018-03-16T05:12:14.634Z,0.00
2018-03-16T05:13:14.598Z,0.00
2018-03-16T05:14:14.540Z,0.00
2018-03-16T05:15:14.494Z,0.00
2018-03-16T05:16:14.450Z,0.00
2018-03-16T05:17:14.407Z,0.00
2018-03-16T05:18:14.370Z,0.00
2018-03-16T05:19:14.311Z,0.00
2018-03-16T05:20:14.268Z,0.00
2018-03-16T05:21:14.220Z,0.00
2018-03-16T05:22:14.171Z,0.00
2018-03-16T05:23:14.126Z,0.00
2018-03-16T05:24:14.079Z,0.00
2018-03-16T05:25:14.036Z,0.00
2018-03-16T05:26:13.988Z,0.00
2018-03-16T05:27:13.942Z,0.00
2018-03-16T05:28:13.896Z,0.00
2018-03-16T05:29:13.908Z,0.00
2018-03-16T05:30:13.865Z,0.00
2018-03-16T05:31:13.758Z,0.00
2018-03-16T05:32:13.711Z,0.00
2018-03-16T05:33:13.665Z,0.00
2018-03-16T05:34:13.619Z,0.00
2018-03-16T05:35:13.574Z,0.00
2018-03-16T05:36:13.532Z,0.00
2018-03-16T05:37:13.483Z,0.00
2018-03-16T05:38:13.433Z,0.00
2018-03-16T05:39:13.390Z,0.00
2018-03-16T05:40:13.341Z,0.00
2018-03-16T05:41:13.297Z,0.00
2018-03-16T05:42:13.251Z,0.00
2018-03-16T05:43:13.207Z,0.00
2018-03-16T05:44:13.157Z,0.00
2018-03-16T05:45:13.113Z,0.00
2018-03-16T05:46:13.066Z,0.00
2018-03-16T05:47:13.022Z,0.00
2018-03-16T05:48:12.973Z,0.00
2018-03-16T05:49:12.930Z,0.00
2018-03-16T05:50:12.882Z,0.00
2018-03-16T05:51:12.835Z,0.00
2018-03-16T05:52:12.790Z,0.00
2018-03-16T05:53:12.762Z,0.00
2018-03-16T05:54:12.698Z,0.00
2018-03-16T05:55:12.654Z,0.00
2018-03-16T05:56:12.610Z,0.00
2018-03-16T05:57:12.558Z,0.00
2018-03-16T05:58:12.513Z,0.00
2018-03-16T05:59:12.471Z,0.00
2018-03-16T06:00:12.425Z,0.00
2018-03-16T06:01:12.376Z,0.00
2018-03-16T06:02:12.328Z,0.00
2018-03-16T06:03:12.285Z,0.00
2018-03-16T06:04:12.239Z,0.00
2018-03-16T06:05:12.198Z,0.00
2018-03-16T06:06:12.145Z,0.00
2018-03-16T06:07:12.098Z,0.00
2018-03-16T06:08:12.053Z,0.00
2018-03-16T06:09:12.012Z,0.00
2018-03-16T06:10:11.966Z,0.00
2018-03-16T06:11:11.937Z,0.00
2018-03-16T06:12:11.886Z,0.00
2018-03-16T06:13:11.838Z,0.00
2018-03-16T06:14:11.778Z,0.00
2018-03-16T06:15:11.737Z,0.00
2018-03-16T06:16:11.687Z,0.00
2018-03-16T06:17:11.637Z,0.00
2018-03-16T06:18:11.592Z,5.63
2018-03-16T06:19:11.550Z,5.63
2018-03-16T06:20:11.508Z,5.63
2018-03-16T06:21:11.466Z,5.63
2018-03-16T06:22:11.414Z,5.63
2018-03-16T06:23:11.367Z,5.63
2018-03-16T06:24:11.316Z,5.63
2018-03-16T06:25:11.269Z,5.63
2018-03-16T06:26:11.223Z,5.63
2018-03-16T06:27:11.177Z,5.63
2018-03-16T06:28:11.128Z,5.63
2018-03-16T06:29:11.083Z,5.63
2018-03-16T06:30:11.041Z,5.63
2018-03-16T06:31:10.997Z,5.63
2018-03-16T06:32:10.948Z,5.63
2018-03-16T06:33:10.899Z,5.63
2018-03-16T06:34:10.854Z,5.63
2018-03-16T06:35:10.814Z,5.63
2018-03-16T06:36:10.764Z,5.63
2018-03-16T06:37:10.718Z,5.63
2018-03-16T06:38:10.667Z,5.63
2018-03-16T06:39:10.622Z,5.63
2018-03-16T06:40:10.574Z,5.63
2018-03-16T06:41:10.531Z,5.63
2018-03-16T06:42:10.482Z,5.63
2018-03-16T06:43:10.439Z,5.63
2018-03-16T06:44:10.391Z,5.63
2018-03-16T06:45:10.344Z,5.63
2018-03-16T06:46:10.301Z,5.63
2018-03-16T06:47:10.252Z,5.63
2018-03-16T06:48:10.218Z,11.25
2018-03-16T06:49:10.163Z,11.25
2018-03-16T06:50:10.111Z,11.25
2018-03-16T06:51:10.070Z,11.25
2018-03-16T06:52:10.021Z,11.25
2018-03-16T06:53:09.973Z,11.25
2018-03-16T06:54:09.929Z,11.25
2018-03-16T06:55:09.881Z,11.25
2018-03-16T06:56:09.835Z,11.25
2018-03-16T06:57:09.790Z,11.25
2018-03-16T06:58:09.744Z,11.25
2018-03-16T06:59:09.698Z,11.25
2018-03-16T07:00:09.653Z,11.25
2018-03-16T07:01:09.604Z,16.88
2018-03-16T07:02:09.561Z,16.88
2018-03-16T07:03:09.513Z,16.88
2018-03-16T07:04:09.465Z,16.88
2018-03-16T07:05:09.420Z,22.50
2018-03-16T07:06:09.376Z,22.50
2018-03-16T07:07:09.329Z,22.50
2018-03-16T07:08:09.283Z,28.13
2018-03-16T07:09:09.240Z,22.50
2018-03-16T07:10:09.192Z,28.13
2018-03-16T07:11:09.144Z,28.13
2018-03-16T07:12:09.134Z,28.13
2018-03-16T07:13:09.051Z,28.13
2018-03-16T07:14:09.005Z,28.13
2018-03-16T07:15:08.959Z,28.13
2018-03-16T07:16:08.911Z,22.50
2018-03-16T07:17:08.870Z,22.50
2018-03-16T07:18:08.821Z,28.13
2018-03-16T07:19:08.774Z,28.13
2018-03-16T07:20:08.734Z,28.13
2018-03-16T07:21:08.683Z,28.13
2018-03-16T07:22:08.636Z,28.13
2018-03-16T07:23:08.640Z,28.13
2018-03-16T07:24:08.544Z,28.13
2018-03-16T07:25:08.496Z,28.13
2018-03-16T07:26:08.454Z,28.13
2018-03-16T07:27:08.405Z,28.13
2018-03-16T07:28:08.357Z,28.13
2018-03-16T07:29:08.313Z,28.13
2018-03-16T07:30:08.266Z,28.13
2018-03-16T07:31:08.221Z,28.13
2018-03-16T07:32:08.176Z,28.13
2018-03-16T07:33:08.127Z,28.13
2018-03-16T07:34:08.083Z,33.75
2018-03-16T07:35:08.040Z,33.75
2018-03-16T07:36:07.994Z,33.75
2018-03-16T07:37:07.950Z,33.75
2018-03-16T07:38:07.900Z,33.75
2018-03-16T07:39:07.849Z,39.38
2018-03-16T07:40:07.808Z,39.38
2018-03-16T07:41:07.758Z,39.38
2018-03-16T07:42:07.717Z,39.38
2018-03-16T07:43:07.672Z,39.38
2018-03-16T07:44:07.618Z,39.38
2018-03-16T07:45:07.574Z,39.38
2018-03-16T07:46:07.530Z,39.38
2018-03-16T07:47:07.482Z,39.38
2018-03-16T07:48:07.434Z,39.38
2018-03-16T07:49:07.389Z,39.38
2018-03-16T07:50:07.342Z,39.38
2018-03-16T07:51:07.300Z,39.38
2018-03-16T07:52:07.251Z,39.38
2018-03-16T07:53:07.203Z,39.38
2018-03-16T07:54:07.157Z,33.75
2018-03-16T07:55:07.113Z,33.75
2018-03-16T07:56:07.075Z,39.38
2018-03-16T07:57:07.020Z,39.38
2018-03-16T07:58:06.973Z,39.38
2018-03-16T07:59:06.926Z,39.38
2018-03-16T08:00:06.879Z,39.38
2018-03-16T08:01:06.841Z,39.38
2018-03-16T08:02:06.793Z,39.38
2018-03-16T08:03:06.743Z,45.00
2018-03-16T08:04:06.697Z,50.63
2018-03-16T08:05:06.653Z,50.63
2018-03-16T08:06:06.604Z,56.25
2018-03-16T08:07:06.563Z,56.25
2018-03-16T08:08:06.511Z,61.88
2018-03-16T08:09:06.464Z,56.25
2018-03-16T08:10:06.419Z,61.88
2018-03-16T08:11:06.376Z,61.88
2018-03-16T08:12:06.331Z,67.50
2018-03-16T08:13:06.279Z,67.50
2018-03-16T08:14:06.234Z,61.88
2018-03-16T08:15:06.210Z,61.88
2018-03-16T08:16:06.143Z,67.50
2018-03-16T08:17:06.095Z,67.50
2018-03-16T08:18:06.052Z,67.50
2018-03-16T08:19:06.004Z,73.13
2018-03-16T08:20:05.959Z,67.50
2018-03-16T08:21:05.914Z,73.13
2018-03-16T08:22:05.873Z,73.13
2018-03-16T08:23:05.820Z,67.50
2018-03-16T08:24:05.772Z,67.50
2018-03-16T08:25:05.729Z,67.50
2018-03-16T08:26:05.682Z,67.50
2018-03-16T08:27:05.637Z,73.13
2018-03-16T08:28:05.667Z,61.88
2018-03-16T08:29:05.545Z,61.88
2018-03-16T08:30:05.498Z,61.88
2018-03-16T08:31:05.451Z,56.25
2018-03-16T08:32:05.405Z,56.25
2018-03-16T08:33:05.359Z,61.88
2018-03-16T08:34:05.324Z,56.25
2018-03-16T08:35:05.270Z,50.63
2018-03-16T08:36:05.221Z,45.00
2018-03-16T08:37:05.176Z,45.00
2018-03-16T08:38:05.129Z,45.00
2018-03-16T08:39:05.085Z,45.00
2018-03-16T08:40:05.037Z,45.00
2018-03-16T08:41:04.991Z,45.00
2018-03-16T08:42:04.948Z,50.63
2018-03-16T08:43:04.901Z,50.63
2018-03-16T08:44:04.855Z,50.63
2018-03-16T08:45:04.814Z,50.63
2018-03-16T08:46:04.777Z,50.63
2018-03-16T08:47:04.714Z,50.63
2018-03-16T08:48:04.669Z,50.63
2018-03-16T08:49:04.625Z,50.63
2018-03-16T08:50:04.580Z,56.25
2018-03-16T08:51:04.532Z,56.25
2018-03-16T08:52:04.484Z,56.25
2018-03-16T08:53:04.439Z,67.50
2018-03-16T08:54:04.392Z,61.88
2018-03-16T08:55:04.349Z,61.88
2018-03-16T08:56:04.300Z,61.88
2018-03-16T08:57:04.254Z,61.88
2018-03-16T08:58:04.213Z,61.88
2018-03-16T08:59:04.166Z,61.88
2018-03-16T09:00:04.121Z,67.50
2018-03-16T09:01:04.070Z,67.50
2018-03-16T09:02:04.024Z,56.25
2018-03-16T09:03:03.982Z,56.25
2018-03-16T09:04:03.932Z,50.63
2018-03-16T09:05:03.889Z,50.63
2018-03-16T09:06:03.841Z,50.63
2018-03-16T09:07:03.800Z,50.63
2018-03-16T09:08:03.746Z,50.63
2018-03-16T09:09:03.710Z,45.00
2018-03-16T09:10:03.655Z,45.00
2018-03-16T09:11:03.614Z,45.00
2018-03-16T09:12:03.565Z,45.00
2018-03-16T09:13:03.518Z,45.00
2018-03-16T09:14:03.472Z,45.00
2018-03-16T09:15:03.426Z,45.00
2018-03-16T09:16:03.379Z,45.00
2018-03-16T09:17:03.332Z,45.00
2018-03-16T09:18:03.290Z,45.00
2018-03-16T09:19:03.241Z,50.63
2018-03-16T09:20:03.193Z,50.63
2018-03-16T09:21:03.152Z,56.25
2018-03-16T09:22:03.104Z,56.25
2018-03-16T09:23:03.060Z,67.50
2018-03-16T09:24:03.011Z,67.50
2018-03-16T09:25:02.962Z,73.13
2018-03-16T09:26:02.917Z,78.75
2018-03-16T09:27:02.870Z,78.75
2018-03-16T09:28:02.824Z,84.38
2018-03-16T09:29:02.778Z,78.75
2018-03-16T09:30:02.734Z,78.75
2018-03-16T09:31:02.688Z,78.75
2018-03-16T09:32:02.641Z,78.75
2018-03-16T09:33:02.596Z,73.13
2018-03-16T09:34:02.550Z,73.13
2018-03-16T09:35:02.501Z,73.13
2018-03-16T09:36:02.456Z,73.13
2018-03-16T09:37:02.409Z,73.13
2018-03-16T09:38:02.361Z,73.13
2018-03-16T09:39:02.317Z,73.13
2018-03-16T09:40:02.269Z,67.50
2018-03-16T09:41:02.223Z,67.50
2018-03-16T09:42:02.183Z,67.50
2018-03-16T09:43:02.166Z,61.88
2018-03-16T09:44:02.089Z,61.88
2018-03-16T09:45:02.038Z,61.88
2018-03-16T09:46:01.995Z,61.88
2018-03-16T09:47:01.948Z,67.50
2018-03-16T09:48:01.903Z,61.88
2018-03-16T09:49:01.856Z,61.88
2018-03-16T09:50:01.810Z,61.88
2018-03-16T09:51:01.763Z,67.50
2018-03-16T09:52:01.716Z,67.50
2018-03-16T09:53:01.673Z,61.88
2018-03-16T09:54:01.623Z,61.88
2018-03-16T09:55:01.595Z,61.88
2018-03-16T09:56:01.533Z,61.88
2018-03-16T09:57:01.497Z,61.88
2018-03-16T09:58:01.439Z,61.88
2018-03-16T09:59:01.392Z,61.88
2018-03-16T10:00:01.346Z,67.50
2018-03-16T10:01:01.306Z,67.50
2018-03-16T10:02:01.257Z,67.50
2018-03-16T10:03:01.206Z,67.50
2018-03-16T10:04:01.160Z,73.13
2018-03-16T10:05:01.115Z,73.13
2018-03-16T10:06:01.068Z,73.13
2018-03-16T10:07:01.024Z,73.13
2018-03-16T10:08:00.976Z,73.13
2018-03-16T10:09:00.939Z,73.13
2018-03-16T10:10:00.883Z,73.13
2018-03-16T10:11:00.839Z,78.75
2018-03-16T10:12:00.843Z,84.38
2018-03-16T10:13:00.746Z,90.00
2018-03-16T10:14:00.700Z,90.00
2018-03-16T10:15:00.656Z,90.00
2018-03-16T10:16:00.611Z,95.63
2018-03-16T10:17:00.562Z,90.00
2018-03-16T10:18:00.514Z,90.00
2018-03-16T10:19:00.468Z,84.38
2018-03-16T10:20:00.420Z,78.75
2018-03-16T10:21:00.375Z,78.75
2018-03-16T10:22:00.330Z,78.75
2018-03-16T10:23:00.283Z,84.38
2018-03-16T10:24:00.240Z,84.38
2018-03-16T10:25:00.193Z,90.00
2018-03-16T10:26:00.147Z,84.38
2018-03-16T10:27:00.098Z,84.38
2018-03-16T10:28:00.053Z,90.00
2018-03-16T10:29:00.011Z,90.00
2018-03-16T10:29:59.961Z,95.63
2018-03-16T10:30:59.916Z,90.00
2018-03-16T10:31:59.870Z,84.38
2018-03-16T10:32:59.821Z,84.38
2018-03-16T10:33:59.782Z,84.38
2018-03-16T10:34:59.733Z,84.38
2018-03-16T10:35:59.687Z,78.75
2018-03-16T10:36:59.641Z,78.75
2018-03-16T10:37:59.593Z,73.13
2018-03-16T10:38:59.547Z,73.13
2018-03-16T10:39:59.499Z,73.13
2018-03-16T10:40:59.455Z,73.13
2018-03-16T10:41:59.408Z,73.13
2018-03-16T10:42:59.366Z,73.13
2018-03-16T10:43:59.318Z,78.75
2018-03-16T10:44:59.276Z,73.13
2018-03-16T10:45:59.224Z,67.50
2018-03-16T10:46:59.177Z,73.13
2018-03-16T10:47:59.129Z,73.13
2018-03-16T10:48:59.136Z,73.13
2018-03-16T10:49:59.039Z,78.75
2018-03-16T10:50:58.996Z,73.13
2018-03-16T10:51:58.948Z,73.13
2018-03-16T10:52:58.902Z,73.13
2018-03-16T10:53:58.856Z,73.13
2018-03-16T10:54:58.810Z,73.13
2018-03-16T10:55:58.765Z,78.75
2018-03-16T10:56:58.726Z,78.75
2018-03-16T10:57:58.676Z,78.75
2018-03-16T10:58:58.628Z,84.38
2018-03-16T10:59:58.580Z,84.38
2018-03-16T11:00:58.535Z,84.38
2018-03-16T11:01:58.490Z,90.00
2018-03-16T11:02:58.443Z,90.00
2018-03-16T11:03:58.396Z,84.38
2018-03-16T11:04:58.351Z,84.38
2018-03-16T11:05:58.305Z,84.38
2018-03-16T11:06:58.260Z,90.00
2018-03-16T11:07:58.212Z,84.38
2018-03-16T11:08:58.169Z,84.38
2018-03-16T11:09:58.121Z,90.00
2018-03-16T11:10:58.078Z,95.63
2018-03-16T11:11:58.031Z,90.00
2018-03-16T11:12:57.986Z,95.63
2018-03-16T11:13:57.944Z,95.63
2018-03-16T11:14:57.891Z,90.00
2018-03-16T11:15:57.846Z,95.63
2018-03-16T11:16:57.802Z,101.25
2018-03-16T11:17:57.752Z,101.25
2018-03-16T11:18:57.706Z,101.25
2018-03-16T11:19:57.659Z,90.00
2018-03-16T11:20:57.615Z,90.00
2018-03-16T11:21:57.567Z,95.63
2018-03-16T11:22:57.522Z,90.00
2018-03-16T11:23:57.475Z,95.63
2018-03-16T11:24:57.432Z,90.00
2018-03-16T11:25:57.384Z,95.63
2018-03-16T11:26:57.339Z,95.63
2018-03-16T11:27:57.291Z,90.00
2018-03-16T11:28:57.247Z,90.00
2018-03-16T11:29:57.199Z,84.38
2018-03-16T11:30:57.155Z,90.00
2018-03-16T11:31:57.111Z,84.38
2018-03-16T11:32:57.064Z,90.00
2018-03-16T11:33:57.016Z,90.00
2018-03-16T11:34:56.969Z,101.25
2018-03-16T11:35:56.925Z,101.25
2018-03-16T11:36:56.879Z,101.25
2018-03-16T11:37:56.835Z,95.63
2018-03-16T11:38:56.787Z,95.63
2018-03-16T11:39:56.744Z,101.25
2018-03-16T11:40:56.699Z,101.25
2018-03-16T11:41:56.656Z,106.88
2018-03-16T11:42:56.608Z,112.50
2018-03-16T11:43:56.574Z,112.50
2018-03-16T11:44:56.513Z,118.13
2018-03-16T11:45:56.467Z,118.13
2018-03-16T11:46:56.425Z,112.50
2018-03-16T11:47:56.374Z,112.50
2018-03-16T11:48:56.328Z,106.88
2018-03-16T11:49:56.280Z,112.50
2018-03-16T11:50:56.236Z,112.50
2018-03-16T11:51:56.188Z,106.88
2018-03-16T11:52:56.144Z,95.63
2018-03-16T11:53:56.096Z,95.63
2018-03-16T11:54:56.054Z,101.25
2018-03-16T11:55:56.005Z,101.25
2018-03-16T11:56:55.963Z,101.25
2018-03-16T11:57:55.913Z,101.25
2018-03-16T11:58:55.868Z,101.25
2018-03-16T11:59:55.823Z,106.88
2018-03-16T12:00:55.780Z,112.50
2018-03-16T12:01:55.735Z,118.13
2018-03-16T12:02:55.688Z,135.00
2018-03-16T12:03:55.640Z,135.00
2018-03-16T12:04:55.592Z,129.38
2018-03-16T12:05:55.550Z,129.38
2018-03-16T12:06:55.506Z,151.88
2018-03-16T12:07:55.460Z,151.88
2018-03-16T12:08:55.409Z,151.88
2018-03-16T12:09:55.364Z,157.50
2018-03-16T12:10:55.318Z,168.75
2018-03-16T12:11:55.272Z,163.13
2018-03-16T12:12:55.227Z,146.25
2018-03-16T12:13:55.183Z,146.25
2018-03-16T12:14:55.141Z,151.88
2018-03-16T12:15:55.089Z,135.00
2018-03-16T12:16:55.049Z,118.13
2018-03-16T12:17:54.997Z,112.50
2018-03-16T12:18:54.955Z,118.13
2018-03-16T12:19:54.908Z,112.50
2018-03-16T12:20:54.865Z,106.88
2018-03-16T12:21:54.815Z,106.88
2018-03-16T12:22:54.771Z,112.50
2018-03-16T12:23:54.730Z,123.75
2018-03-16T12:24:54.681Z,118.13
2018-03-16T12:25:54.637Z,118.13
2018-03-16T12:26:54.589Z,112.50
2018-03-16T12:27:54.543Z,112.50
2018-03-16T12:28:54.495Z,118.13
2018-03-16T12:29:54.457Z,118.13
2018-03-16T12:30:54.439Z,106.88
2018-03-16T12:31:54.362Z,106.88
2018-03-16T12:32:54.319Z,106.88
2018-03-16T12:33:54.272Z,112.50
2018-03-16T12:34:54.227Z,118.13
2018-03-16T12:35:54.176Z,106.88
2018-03-16T12:36:54.139Z,95.63
2018-03-16T12:37:54.093Z,95.63
2018-03-16T12:38:54.041Z,90.00
2018-03-16T12:39:53.995Z,84.38
2018-03-16T12:40:53.958Z,78.75
2018-03-16T12:41:53.908Z,84.38
2018-03-16T12:42:53.861Z,84.38
2018-03-16T12:43:53.816Z,84.38
2018-03-16T12:44:53.768Z,101.25
2018-03-16T12:45:53.723Z,101.25
2018-03-16T12:46:53.680Z,106.88
2018-03-16T12:47:53.643Z,106.88
2018-03-16T12:48:53.585Z,101.25
2018-03-16T12:49:53.540Z,106.88
2018-03-16T12:50:53.500Z,118.13
2018-03-16T12:51:53.450Z,106.88
2018-03-16T12:52:53.403Z,101.25
2018-03-16T12:53:53.361Z,95.63
2018-03-16T12:54:53.311Z,95.63
2018-03-16T12:55:53.263Z,90.00
2018-03-16T12:56:53.220Z,90.00
2018-03-16T12:57:53.176Z,95.63
2018-03-16T12:58:53.145Z,84.38
2018-03-16T12:59:53.084Z,84.38
2018-03-16T13:00:53.035Z,90.00
2018-03-16T13:01:52.992Z,78.75
2018-03-16T13:02:52.947Z,84.38